Weather Conditions for:
Los Angeles, Los Angeles International Airport, CA (KLAX)
Elev: 125 ft; Latitude: 33.93806; Longitude: -118.38889

Time Temp. Dew Relative Wind Wind Sea Level
Point Humidity Direction Speed Pressure
(PDT) (f) (f) (%) (mph) (mb)
25 Oct 11:53 pm PDT 72 38 29 VRBL 7 1014.1
25 Oct 10:53 pm PDT 72 38 29 N 8 1013.9
25 Oct 9:53 pm PDT 72 39 30 NNE 12G20 1014.2
25 Oct 8:53 pm PDT 73 39 29 N 14G22 1013.9
25 Oct 7:53 pm PDT 75 40 28 NNW 13G24 1013.8
25 Oct 6:53 pm PDT 76 40 27 NNW 12 1013.7
25 Oct 5:53 pm PDT 69 58 68 WSW 15 1013.7
25 Oct 4:53 pm PDT 71 56 59 W 23G29 1013.3
25 Oct 3:53 pm PDT 73 56 55 W 20 1013.8
25 Oct 2:53 pm PDT 74 54 50 W 23 1014.4
25 Oct 1:53 pm PDT 75 50 41 W 22 1014.9
25 Oct 12:53 pm PDT 76 50 40 WNW 12G21 1015.7
25 Oct 12:17 pm PDT 75 52 44 SW 13G22
25 Oct 11:53 am PDT 81 36 20 NW 17G26 1016.5
25 Oct 10:53 am PDT 77 34 21 NW 17G24 1017.3
25 Oct 9:53 am PDT 73 34 24 NW 15G22 1017.6
25 Oct 8:53 am PDT 70 34 26 NNW 12G21 1017.7
25 Oct 7:53 am PDT 67 34 29 NW 14 1017.4
25 Oct 6:53 am PDT 67 33 28 NW 14G23 1017.1
25 Oct 5:53 am PDT 67 32 27 NNW 17G25 1016.9
25 Oct 4:53 am PDT 66 34 30 NW 15G21 1016.7
25 Oct 3:53 am PDT 66 33 29 NW 8 1016.9
25 Oct 2:53 am PDT 66 33 29 NNW 10G17 1017.4
25 Oct 1:53 am PDT 66 36 33 NW 12G22 1017.5
25 Oct 12:53 am PDT 65 35 33 NW 16G22

http://www.wrh.noaa.gov/mesowest/getobext.php?wfo=lox&sid=KLAX&num=72